Time;durP1;ratioP1;P1;durP2;ratioP2;P2;SDS_P1;SDS_P2;PMS_P1;PMS_P2;Temp;Humidity;BMP_temperature;BMP_pressure;BME280_temperature;BME280_humidity;BME280_pressure;Samples;Min_cycle;Max_cycle;Signal;HPM_P1;HPM_P2
2022/09/13 00:00:51;;;;;;;0.28;0.28;;;24.40;56.40;;;;;;5103540;28;20024;-60
2022/09/13 00:03:17;;;;;;;;;;;24.40;56.40;;;;;;5104045;28;20012;-60
2022/09/13 00:05:43;;;;;;;0.55;0.55;;;24.40;57.00;;;;;;5103566;28;19900;-61
2022/09/13 00:08:10;;;;;;;0.40;0.40;;;24.40;56.40;;;;;;5103546;28;20036;-60
2022/09/13 00:10:38;;;;;;;0.20;0.20;;;24.40;56.30;;;;;;5103369;28;20044;-60
2022/09/13 00:13:06;;;;;;;0.32;0.30;;;24.40;56.30;;;;;;5103486;28;20023;-60
2022/09/13 00:15:32;;;;;;;0.50;0.50;;;24.40;56.50;;;;;;5103494;28;20049;-60
2022/09/13 00:17:58;;;;;;;0.50;0.32;;;24.40;56.40;;;;;;5103440;28;20035;-60
2022/09/13 00:20:24;;;;;;;0.50;0.50;;;24.40;56.40;;;;;;5103357;28;20039;-60
2022/09/13 00:22:50;;;;;;;0.40;0.40;;;24.40;56.40;;;;;;5103404;28;20211;-60
2022/09/13 00:25:16;;;;;;;0.47;0.47;;;24.40;56.50;;;;;;5103353;28;20016;-59
2022/09/13 00:27:43;;;;;;;1.30;0.88;;;24.40;56.50;;;;;;5103336;28;20031;-60
2022/09/13 00:30:10;;;;;;;0.32;0.32;;;24.40;56.40;;;;;;5103297;28;20020;-61
2022/09/13 00:32:36;;;;;;;0.30;0.30;;;24.40;56.40;;;;;;5103252;28;20319;-59
2022/09/13 00:35:04;;;;;;;0.85;0.43;;;24.40;56.50;;;;;;5107119;28;20020;-59
2022/09/13 00:37:32;;;;;;;0.50;0.50;;;24.40;56.50;;;;;;5107229;28;20020;-60
2022/09/13 00:39:58;;;;;;;0.43;0.43;;;24.40;56.40;;;;;;5107089;28;20024;-59
2022/09/13 00:42:26;;;;;;;0.52;0.30;;;24.40;56.50;;;;;;5107119;28;20035;-60
2022/09/13 00:44:57;;;;;;;0.50;0.50;;;24.40;56.50;;;;;;5107052;28;20050;-60
2022/09/13 00:47:32;;;;;;;0.55;0.55;;;24.30;56.40;;;;;;5106990;28;20020;-59
2022/09/13 00:50:30;;;;;;;0.47;0.40;;;24.40;56.40;;;;;;5107264;28;20051;-60
2022/09/13 00:53:06;;;;;;;0.57;0.57;;;24.30;56.50;;;;;;5106924;28;20046;-60
2022/09/13 00:55:46;;;;;;;0.50;0.50;;;24.30;56.40;;;;;;5106889;28;20020;-59
2022/09/13 00:58:33;;;;;;;1.70;0.30;;;24.30;56.40;;;;;;5106831;28;20024;-59
2022/09/13 01:01:02;;;;;;;0.52;0.52;;;24.30;56.40;;;;;;5106695;28;20079;-60
2022/09/13 01:03:32;;;;;;;0.50;0.50;;;24.30;56.40;;;;;;5088613;28;20047;-59
2022/09/13 01:06:08;;;;;;;0.35;0.35;;;24.30;56.40;;;;;;5088855;28;20024;-59
2022/09/13 01:08:37;;;;;;;0.40;0.40;;;24.30;56.40;;;;;;5106614;28;20083;-59
2022/09/13 01:11:10;;;;;;;0.30;0.30;;;24.30;56.40;;;;;;5106416;28;20102;-60
2022/09/13 01:13:38;;;;;;;1.73;0.50;;;24.30;56.40;;;;;;5106537;28;20212;-59
2022/09/13 01:16:04;;;;;;;4.40;0.70;;;24.30;56.40;;;;;;5106461;28;20024;-60
2022/09/13 01:18:30;;;;;;;0.55;0.40;;;24.30;56.40;;;;;;5106402;28;20311;-59
2022/09/13 01:21:26;;;;;;;0.28;0.28;;;24.30;56.50;;;;;;5106284;28;20031;-59
2022/09/13 01:23:58;;;;;;;0.77;0.77;;;24.30;56.40;;;;;;5106339;28;20020;-59
2022/09/13 01:26:42;;;;;;;0.50;0.50;;;24.30;56.40;;;;;;5106255;28;20027;-59
2022/09/13 01:29:47;;;;;;;0.50;0.50;;;24.30;56.40;;;;;;5106167;28;20016;-59
2022/09/13 01:32:31;;;;;;;0.68;0.50;;;24.20;56.30;;;;;;5105989;28;20048;-59
2022/09/13 01:35:31;;;;;;;1.92;0.45;;;24.20;56.40;;;;;;5106114;28;20088;-60
2022/09/13 01:38:09;;;;;;;0.50;0.50;;;24.20;56.30;;;;;;5067158;28;20032;-60
2022/09/13 01:41:23;;;;;;;0.20;0.20;;;24.20;56.30;;;;;;5105958;28;20066;-60
2022/09/13 01:43:59;;;;;;;0.90;0.45;;;24.20;56.30;;;;;;5084140;28;20048;-59
2022/09/13 01:47:10;;;;;;;0.40;0.40;;;24.20;56.40;;;;;;5105891;28;20046;-60
2022/09/13 01:50:00;;;;;;;0.52;0.52;;;24.20;56.30;;;;;;5100834;28;20059;-59
2022/09/13 01:52:37;;;;;;;0.30;0.30;;;24.20;56.40;;;;;;5105716;28;20024;-60
2022/09/13 01:55:22;;;;;;;0.47;0.47;;;24.20;56.20;;;;;;5105748;28;20089;-60
2022/09/13 01:58:02;;;;;;;0.55;0.50;;;24.20;56.30;;;;;;5105900;28;20028;-58
2022/09/13 02:00:34;;;;;;;1.73;0.28;;;24.20;56.40;;;;;;5105510;28;20027;-61
2022/09/13 02:03:22;;;;;;;0.40;0.40;;;24.20;56.40;;;;;;5105551;28;20016;-60
2022/09/13 02:05:58;;;;;;;0.30;0.30;;;24.20;56.40;;;;;;5105469;28;20061;-61
2022/09/13 02:08:40;;;;;;;0.57;0.55;;;24.20;56.30;;;;;;5105414;28;20020;-59
2022/09/13 02:11:11;;;;;;;0.40;0.40;;;24.20;56.40;;;;;;5105259;28;20044;-59
2022/09/13 02:13:47;;;;;;;0.40;0.40;;;24.20;56.40;;;;;;5105295;28;20016;-58
2022/09/13 02:16:20;;;;;;;0.60;0.50;;;24.20;56.40;;;;;;5105320;28;20203;-60
2022/09/13 02:18:50;;;;;;;0.50;0.50;;;24.20;56.30;;;;;;5105217;28;20215;-59
2022/09/13 02:21:30;;;;;;;2.13;0.50;;;24.20;56.30;;;;;;5105443;28;20061;-59
2022/09/13 02:24:05;;;;;;;1.20;0.47;;;24.10;56.30;;;;;;5105118;28;20203;-59
2022/09/13 02:26:34;;;;;;;0.50;0.50;;;24.10;56.30;;;;;;5105107;28;20037;-59
2022/09/13 02:29:03;;;;;;;0.57;0.57;;;24.10;56.20;;;;;;5104917;28;20023;-59
2022/09/13 02:31:44;;;;;;;0.80;0.80;;;24.20;56.30;;;;;;5104981;28;20023;-60
2022/09/13 02:34:18;;;;;;;0.32;0.32;;;24.10;56.30;;;;;;5104961;28;20019;-59
2022/09/13 02:36:45;;;;;;;0.50;0.50;;;24.10;56.10;;;;;;5104893;28;20011;-59
2022/09/13 02:39:18;;;;;;;0.30;0.30;;;24.10;56.30;;;;;;5104733;28;20024;-59
2022/09/13 02:41:54;;;;;;;0.40;0.40;;;24.10;56.20;;;;;;5104800;28;20071;-60
2022/09/13 02:44:34;;;;;;;0.30;0.30;;;24.10;56.30;;;;;;5104750;28;20016;-59
2022/09/13 02:47:12;;;;;;;0.52;0.52;;;24.10;56.30;;;;;;5104696;28;20024;-59
2022/09/13 02:49:56;;;;;;;0.47;0.40;;;24.10;56.30;;;;;;5104655;28;20020;-60
2022/09/13 02:52:36;;;;;;;0.30;0.30;;;24.10;56.30;;;;;;5104602;28;20027;-59
2022/09/13 02:55:24;;;;;;;0.70;0.50;;;24.00;56.20;;;;;;5104562;28;20020;-59
2022/09/13 02:58:06;;;;;;;0.40;0.40;;;24.10;56.40;;;;;;5104527;28;20082;-59
2022/09/13 03:00:32;;;;;;;0.38;0.38;;;24.10;56.30;;;;;;5104393;28;20016;-59
2022/09/13 03:03:01;;;;;;;0.57;0.55;;;24.10;56.30;;;;;;5104338;28;20019;-59
2022/09/13 03:05:27;;;;;;;1.17;0.30;;;24.10;56.20;;;;;;5104302;28;20016;-59
2022/09/13 03:07:53;;;;;;;0.82;0.50;;;24.00;56.30;;;;;;5104281;28;20065;-59
2022/09/13 03:10:22;;;;;;;0.60;0.40;;;24.10;56.30;;;;;;5104067;28;20339;-59
2022/09/13 03:13:29;;;;;;;0.50;0.50;;;24.00;56.10;;;;;;5104247;28;20299;-60
2022/09/13 03:16:09;;;;;;;;;;;24.00;56.30;;;;;;5104671;28;20020;-60
2022/09/13 03:19:02;;;;;;;0.50;0.50;;;24.00;56.30;;;;;;5104127;28;19907;-59
2022/09/13 03:22:08;;;;;;;0.40;0.40;;;24.00;56.30;;;;;;5104091;28;20024;-60
2022/09/13 03:24:40;;;;;;;0.73;0.50;;;24.00;56.30;;;;;;5104045;28;20088;-60
2022/09/13 03:27:27;;;;;;;0.40;0.40;;;24.00;56.20;;;;;;5103951;28;20031;-60
2022/09/13 03:30:02;;;;;;;0.43;0.43;;;24.00;56.20;;;;;;5104003;28;20060;-60
2022/09/13 03:33:09;;;;;;;0.63;0.60;;;24.00;56.30;;;;;;5103876;28;20016;-60
2022/09/13 03:35:56;;;;;;;1.15;0.70;;;24.00;56.30;;;;;;5103698;28;20030;-60
2022/09/13 03:38:35;;;;;;;0.85;0.47;;;24.00;56.20;;;;;;5103837;28;20016;-59
2022/09/13 03:41:06;;;;;;;1.95;0.52;;;24.00;56.30;;;;;;5103695;28;20204;-59
2022/09/13 03:43:44;;;;;;;0.40;0.40;;;24.00;56.30;;;;;;5103790;28;20053;-59
2022/09/13 03:46:19;;;;;;;0.40;0.40;;;24.00;56.20;;;;;;5103735;28;20043;-60
2022/09/13 03:48:45;;;;;;;0.43;0.40;;;24.00;56.40;;;;;;5103677;28;20016;-60
2022/09/13 03:51:12;;;;;;;0.32;0.32;;;24.00;56.30;;;;;;5103713;28;20047;-60
2022/09/13 03:53:44;;;;;;;0.40;0.40;;;24.00;56.40;;;;;;5103618;28;20019;-59
2022/09/13 03:56:19;;;;;;;0.35;0.35;;;24.00;56.90;;;;;;5103636;28;20278;-59
2022/09/13 03:58:48;;;;;;;0.50;0.50;;;24.00;56.20;;;;;;5103596;28;20047;-60
2022/09/13 04:01:22;;;;;;;0.40;0.40;;;23.90;56.30;;;;;;5103476;28;20098;-59
2022/09/13 04:03:48;;;;;;;0.30;0.30;;;23.90;56.30;;;;;;5103592;28;20009;-59
2022/09/13 04:06:15;;;;;;;0.40;0.40;;;23.90;56.10;;;;;;5103562;28;20020;-59
2022/09/13 04:08:41;;;;;;;0.50;0.50;;;23.90;56.30;;;;;;5105206;28;20015;-60
2022/09/13 04:11:08;;;;;;;0.40;0.40;;;23.90;56.30;;;;;;5107570;28;20054;-60
2022/09/13 04:13:35;;;;;;;0.50;0.50;;;23.90;56.30;;;;;;5107617;28;20022;-59
2022/09/13 04:16:01;;;;;;;0.43;0.43;;;23.90;56.20;;;;;;5107610;28;20056;-60
2022/09/13 04:18:28;;;;;;;0.50;0.50;;;23.90;56.20;;;;;;5107596;28;20083;-60
2022/09/13 04:20:55;;;;;;;0.47;0.40;;;23.90;56.30;;;;;;5107458;28;20026;-58
2022/09/13 04:23:22;;;;;;;0.37;0.37;;;23.90;56.20;;;;;;5107509;28;20016;-59
2022/09/13 04:25:47;;;;;;;0.70;0.40;;;23.90;56.30;;;;;;5107440;28;20016;-58
2022/09/13 04:28:13;;;;;;;0.45;0.38;;;23.90;56.30;;;;;;5107383;28;20024;-58
2022/09/13 04:30:46;;;;;;;0.55;0.40;;;23.90;56.30;;;;;;5107333;28;20027;-58
2022/09/13 04:33:13;;;;;;;0.50;0.50;;;23.90;56.20;;;;;;5107335;28;20020;-59
2022/09/13 04:35:39;;;;;;;0.38;0.38;;;23.90;56.30;;;;;;5107269;28;20079;-59
2022/09/13 04:38:06;;;;;;;0.50;0.50;;;23.90;56.30;;;;;;5107191;28;20262;-60
2022/09/13 04:40:33;;;;;;;0.55;0.50;;;23.90;56.30;;;;;;5107066;28;20020;-59
2022/09/13 04:43:00;;;;;;;0.63;0.50;;;23.90;56.30;;;;;;5107110;28;20008;-59
2022/09/13 04:45:26;;;;;;;0.40;0.40;;;23.90;56.40;;;;;;5107047;28;20024;-59
2022/09/13 04:47:53;;;;;;;0.50;0.50;;;23.90;56.30;;;;;;5106997;28;20008;-60
2022/09/13 04:50:20;;;;;;;0.40;0.40;;;23.80;56.20;;;;;;5106937;28;20020;-59
2022/09/13 04:52:46;;;;;;;0.50;0.50;;;23.80;56.20;;;;;;5106893;28;20246;-60
2022/09/13 04:55:13;;;;;;;0.90;0.50;;;23.80;56.20;;;;;;5106880;28;20024;-60
2022/09/13 04:57:40;;;;;;;1.60;0.43;;;23.80;56.20;;;;;;5106830;28;20035;-59
2022/09/13 05:00:06;;;;;;;0.30;0.30;;;23.80;56.20;;;;;;5106687;28;20024;-58
2022/09/13 05:02:32;;;;;;;0.50;0.50;;;23.80;56.20;;;;;;5106727;28;20016;-60
2022/09/13 05:04:58;;;;;;;1.45;0.35;;;23.80;56.20;;;;;;5106717;28;20023;-59
2022/09/13 05:07:24;;;;;;;0.75;0.43;;;23.80;56.20;;;;;;5106669;28;20315;-59
2022/09/13 05:09:49;;;;;;;0.52;0.50;;;23.80;56.20;;;;;;5079841;28;20048;-59
2022/09/13 05:12:15;;;;;;;0.40;0.40;;;23.80;56.30;;;;;;5086278;28;20047;-60
2022/09/13 05:14:41;;;;;;;0.63;0.50;;;23.80;56.30;;;;;;5086197;28;20385;-60
2022/09/13 05:17:07;;;;;;;0.30;0.30;;;23.80;56.40;;;;;;5086216;28;20334;-60
2022/09/13 05:19:33;;;;;;;0.65;0.52;;;23.80;56.30;;;;;;5085545;28;20212;-60
2022/09/13 05:22:00;;;;;;;0.90;0.50;;;23.80;56.20;;;;;;5086087;28;20016;-60
2022/09/13 05:24:26;;;;;;;0.45;0.45;;;23.80;56.30;;;;;;5086062;28;20227;-59
2022/09/13 05:26:52;;;;;;;0.40;0.32;;;23.80;56.30;;;;;;5086012;28;20265;-59
2022/09/13 05:29:18;;;;;;;0.52;0.52;;;23.80;56.40;;;;;;5085930;28;20020;-59
2022/09/13 05:31:44;;;;;;;0.40;0.40;;;23.70;56.40;;;;;;5085896;28;20024;-59
2022/09/13 05:34:13;;;;;;;0.40;0.40;;;23.70;56.40;;;;;;5085874;28;20316;-59
2022/09/13 05:36:39;;;;;;;0.70;0.70;;;23.70;56.40;;;;;;5085829;28;20027;-59
2022/09/13 05:39:06;;;;;;;0.60;0.60;;;23.70;56.40;;;;;;5085670;28;20024;-58
2022/09/13 05:41:33;;;;;;;0.38;0.38;;;23.70;56.50;;;;;;5085738;28;20054;-59
2022/09/13 05:43:59;;;;;;;0.50;0.50;;;23.70;56.50;;;;;;5085666;28;20017;-59
2022/09/13 05:46:25;;;;;;;0.50;0.50;;;23.70;56.50;;;;;;5085622;28;20013;-59
2022/09/13 05:48:51;;;;;;;0.50;0.47;;;23.70;56.40;;;;;;5067725;28;20205;-59
2022/09/13 05:51:19;;;;;;;0.38;0.30;;;23.70;56.50;;;;;;5085528;28;20262;-59
2022/09/13 05:53:50;;;;;;;0.43;0.43;;;23.70;56.50;;;;;;5085502;28;20025;-59
2022/09/13 05:56:25;;;;;;;0.40;0.40;;;23.70;56.50;;;;;;5085753;28;20020;-59
2022/09/13 05:58:52;;;;;;;0.52;0.52;;;23.70;56.50;;;;;;5085431;28;20093;-60
2022/09/13 06:01:20;;;;;;;0.45;0.45;;;23.70;56.50;;;;;;5085262;28;20020;-59
2022/09/13 06:03:50;;;;;;;0.30;0.30;;;23.70;56.50;;;;;;5085332;28;20012;-59
2022/09/13 06:06:17;;;;;;;0.40;0.40;;;23.70;56.50;;;;;;5085490;28;20025;-59
2022/09/13 06:08:43;;;;;;;0.40;0.40;;;23.60;56.50;;;;;;5085195;28;20016;-59
2022/09/13 06:11:11;;;;;;;0.30;0.30;;;23.60;56.50;;;;;;5104626;28;20052;-60
2022/09/13 06:13:37;;;;;;;0.40;0.40;;;23.60;56.60;;;;;;5105404;28;20035;-59
2022/09/13 06:16:05;;;;;;;0.93;0.60;;;23.60;56.60;;;;;;5105328;28;20028;-59
2022/09/13 06:18:32;;;;;;;0.40;0.40;;;23.70;56.60;;;;;;5105317;28;20012;-59
2022/09/13 06:21:00;;;;;;;0.55;0.55;;;23.60;56.50;;;;;;5105141;28;20028;-59
2022/09/13 06:23:29;;;;;;;0.45;0.35;;;23.60;56.50;;;;;;5105171;28;20016;-59
2022/09/13 06:26:04;;;;;;;0.30;0.30;;;23.60;56.60;;;;;;5105153;28;20035;-59
2022/09/13 06:28:30;;;;;;;0.47;0.47;;;23.60;56.60;;;;;;5105126;28;20044;-59
2022/09/13 06:31:19;;;;;;;0.60;0.60;;;23.60;56.50;;;;;;5104124;28;20211;-59
2022/09/13 06:33:45;;;;;;;0.60;0.60;;;23.60;56.60;;;;;;5105016;28;20020;-60
2022/09/13 06:36:18;;;;;;;0.40;0.40;;;23.60;56.60;;;;;;5104953;28;20028;-60
2022/09/13 06:38:47;;;;;;;0.50;0.50;;;23.60;56.70;;;;;;5104901;28;20189;-59
2022/09/13 06:41:17;;;;;;;0.70;0.70;;;23.60;56.70;;;;;;5104774;28;20016;-60
2022/09/13 06:43:43;;;;;;;0.82;0.55;;;23.60;56.60;;;;;;5104800;28;20024;-59
2022/09/13 06:46:11;;;;;;;0.50;0.50;;;23.60;56.70;;;;;;5104784;28;20075;-60
2022/09/13 06:48:40;;;;;;;0.45;0.45;;;23.50;56.70;;;;;;5104714;28;20016;-59
2022/09/13 06:51:12;;;;;;;0.30;0.30;;;23.60;56.70;;;;;;5104647;28;20024;-59
2022/09/13 06:53:39;;;;;;;0.40;0.40;;;23.60;56.80;;;;;;5104556;28;20016;-59
2022/09/13 06:56:11;;;;;;;0.40;0.40;;;23.60;56.70;;;;;;5104563;28;20023;-59
2022/09/13 06:58:38;;;;;;;0.50;0.50;;;23.60;56.70;;;;;;5104835;28;20020;-59
2022/09/13 07:01:18;;;;;;;0.43;0.43;;;23.60;56.90;;;;;;5104420;28;20020;-60
2022/09/13 07:03:50;;;;;;;0.30;0.30;;;23.60;56.80;;;;;;5104741;28;20056;-59
2022/09/13 07:06:26;;;;;;;0.50;0.50;;;23.60;56.70;;;;;;5104387;28;20330;-59
2022/09/13 07:08:52;;;;;;;0.45;0.45;;;23.60;56.70;;;;;;5104174;28;20311;-59
2022/09/13 07:11:21;;;;;;;0.32;0.32;;;23.60;56.70;;;;;;5104274;28;20234;-59
2022/09/13 07:13:50;;;;;;;;;;;23.60;56.60;;;;;;5104677;28;20020;-60
2022/09/13 07:16:17;;;;;;;0.50;0.50;;;23.60;56.70;;;;;;5104204;28;19900;-60
2022/09/13 07:18:44;;;;;;;0.52;0.50;;;23.60;56.60;;;;;;5104460;28;20023;-60
2022/09/13 07:21:11;;;;;;;0.52;0.52;;;23.60;56.50;;;;;;5104073;28;20050;-60
2022/09/13 07:23:38;;;;;;;0.40;0.40;;;23.70;57.10;;;;;;5104076;28;20327;-61
2022/09/13 07:26:06;;;;;;;0.40;0.40;;;23.70;56.50;;;;;;5104085;28;20215;-59
2022/09/13 07:28:40;;;;;;;0.30;0.20;;;23.60;56.50;;;;;;5085978;28;20490;-58
2022/09/13 07:31:10;;;;;;;0.40;0.40;;;23.70;56.50;;;;;;5103923;28;20249;-59
2022/09/13 07:33:37;;;;;;;0.73;0.50;;;23.60;56.60;;;;;;5103767;28;20040;-58
2022/09/13 07:36:07;;;;;;;0.43;0.43;;;23.60;56.70;;;;;;5103932;28;20216;-59
2022/09/13 07:38:35;;;;;;;0.50;0.50;;;23.60;56.70;;;;;;5103877;28;20027;-59
2022/09/13 07:41:05;;;;;;;0.40;0.40;;;23.60;57.30;;;;;;5103783;28;20027;-59
2022/09/13 07:43:32;;;;;;;0.50;0.50;;;23.60;56.90;;;;;;5103571;28;20211;-60
2022/09/13 07:46:00;;;;;;;0.65;0.65;;;23.60;56.70;;;;;;5103991;28;20020;-59
2022/09/13 07:48:27;;;;;;;0.40;0.40;;;23.60;56.60;;;;;;5103794;28;20020;-58
2022/09/13 07:51:17;;;;;;;0.60;0.60;;;23.70;56.60;;;;;;5103746;28;20064;-59
2022/09/13 07:53:44;;;;;;;0.22;0.22;;;23.70;56.60;;;;;;5091428;28;20040;-59
2022/09/13 07:56:19;;;;;;;0.40;0.40;;;23.70;56.60;;;;;;5103664;28;20027;-59
2022/09/13 07:58:47;;;;;;;0.40;0.40;;;23.70;56.60;;;;;;5103675;28;20012;-59
2022/09/13 08:01:17;;;;;;;;;;;23.70;56.50;;;;;;5103975;28;20079;-59
2022/09/13 08:03:44;;;;;;;0.30;0.30;;;23.70;56.50;;;;;;5103639;28;20176;-59
2022/09/13 08:06:10;;;;;;;0.60;0.60;;;23.70;56.50;;;;;;5103582;28;20016;-59
2022/09/13 08:08:36;;;;;;;0.50;0.50;;;23.80;56.50;;;;;;5103501;28;20068;-58
2022/09/13 08:11:04;;;;;;;0.50;0.50;;;23.80;56.50;;;;;;5103396;28;20046;-59
2022/09/13 08:13:33;;;;;;;0.52;0.40;;;23.80;56.50;;;;;;5103821;28;20028;-59
2022/09/13 08:16:04;;;;;;;0.43;0.43;;;23.80;56.50;;;;;;5103499;28;20024;-60
2022/09/13 08:18:30;;;;;;;0.50;0.50;;;23.80;56.50;;;;;;5103694;28;20027;-59
2022/09/13 08:20:58;;;;;;;0.40;0.40;;;23.80;56.50;;;;;;5103677;28;20020;-59
2022/09/13 08:23:24;;;;;;;0.65;0.50;;;23.80;56.50;;;;;;5103427;28;20320;-58
2022/09/13 08:25:53;;;;;;;0.45;0.43;;;23.80;56.50;;;;;;5103402;28;20020;-59
2022/09/13 08:28:21;;;;;;;0.40;0.40;;;23.80;56.50;;;;;;5102635;28;20024;-59
2022/09/13 08:30:47;;;;;;;0.30;0.30;;;23.80;56.50;;;;;;5103393;28;20020;-60
2022/09/13 08:33:13;;;;;;;0.50;0.50;;;23.80;56.50;;;;;;5103229;28;20022;-60
2022/09/13 08:35:40;;;;;;;0.65;0.40;;;23.80;56.50;;;;;;5103259;28;20089;-59
2022/09/13 08:38:06;;;;;;;0.68;0.63;;;23.80;56.50;;;;;;5103200;28;20020;-60
2022/09/13 08:40:44;;;;;;;0.40;0.40;;;23.80;56.50;;;;;;5103193;28;20027;-60
2022/09/13 08:43:13;;;;;;;;;;;23.80;56.50;;;;;;5103739;28;20024;-60
2022/09/13 08:45:39;;;;;;;0.40;0.40;;;23.80;56.50;;;;;;5103247;28;19900;-60
2022/09/13 08:48:13;;;;;;;0.50;0.50;;;23.80;56.50;;;;;;5103199;28;20023;-60
2022/09/13 08:50:42;;;;;;;0.38;0.38;;;23.90;56.50;;;;;;5103210;28;20058;-59
2022/09/13 08:53:29;;;;;;;0.47;0.47;;;23.80;56.40;;;;;;5103412;28;20035;-58
2022/09/13 08:56:43;;;;;;;0.43;0.43;;;23.90;56.40;;;;;;5106594;28;20061;-59
2022/09/13 08:59:19;;;;;;;0.32;0.32;;;23.90;56.40;;;;;;5062012;28;20319;-60
2022/09/13 09:01:46;;;;;;;0.82;0.70;;;23.90;56.50;;;;;;5106797;28;20092;-59
2022/09/13 09:04:23;;;;;;;0.30;0.30;;;23.90;56.40;;;;;;5107000;28;20020;-59
2022/09/13 09:06:49;;;;;;;0.43;0.43;;;23.90;56.40;;;;;;5106741;28;20041;-59
2022/09/13 09:09:20;;;;;;;0.52;0.40;;;23.90;56.40;;;;;;5106447;28;20044;-59
2022/09/13 09:12:28;;;;;;;0.25;0.25;;;23.90;56.30;;;;;;5106587;28;20208;-59
2022/09/13 09:15:04;;;;;;;0.30;0.30;;;24.00;56.30;;;;;;5093030;28;20028;-59
2022/09/13 09:17:41;;;;;;;0.50;0.50;;;23.90;56.30;;;;;;5106422;28;20019;-59
2022/09/13 09:20:31;;;;;;;0.40;0.40;;;24.00;56.30;;;;;;5106401;28;20027;-59
2022/09/13 09:23:01;;;;;;;0.50;0.50;;;24.00;56.30;;;;;;5106620;28;20262;-59
2022/09/13 09:25:27;;;;;;;0.30;0.30;;;24.00;56.30;;;;;;5106494;28;20011;-60
2022/09/13 09:27:53;;;;;;;0.40;0.40;;;24.00;56.20;;;;;;5106293;28;20040;-59
2022/09/13 09:30:20;;;;;;;0.90;0.45;;;24.00;56.20;;;;;;5106159;28;20042;-59
2022/09/13 09:33:07;;;;;;;0.57;0.57;;;24.00;56.20;;;;;;5106116;28;20048;-60
2022/09/13 09:36:01;;;;;;;0.43;0.40;;;24.00;56.10;;;;;;5106156;28;20371;-59
2022/09/13 09:38:30;;;;;;;0.52;0.50;;;24.00;56.10;;;;;;5106006;28;20280;-59
2022/09/13 09:40:59;;;;;;;0.47;0.47;;;24.00;56.20;;;;;;5105885;28;20020;-59
2022/09/13 09:43:37;;;;;;;0.40;0.40;;;24.10;56.20;;;;;;5105926;28;20083;-60
2022/09/13 09:46:06;;;;;;;0.60;0.60;;;24.00;56.20;;;;;;5105922;28;20042;-59
2022/09/13 09:48:38;;;;;;;;;;;24.10;56.20;;;;;;5106327;28;20012;-59
2022/09/13 09:51:07;;;;;;;0.40;0.40;;;24.10;56.10;;;;;;5087828;28;19900;-60
2022/09/13 09:53:38;;;;;;;0.30;0.30;;;24.10;56.10;;;;;;5105985;28;20024;-59
2022/09/13 09:56:27;;;;;;;0.40;0.40;;;24.10;56.10;;;;;;5105693;28;20063;-60
2022/09/13 09:58:54;;;;;;;0.40;0.40;;;24.10;56.10;;;;;;5105662;28;20378;-60
2022/09/13 10:01:28;;;;;;;0.30;0.30;;;24.10;56.10;;;;;;5105799;28;20016;-59
2022/09/13 10:04:21;;;;;;;0.45;0.40;;;24.10;56.10;;;;;;5105583;28;20012;-60
2022/09/13 10:06:48;;;;;;;0.85;0.40;;;24.10;56.20;;;;;;5104818;28;20024;-59
2022/09/13 10:09:17;;;;;;;0.40;0.40;;;24.00;56.20;;;;;;5105312;28;20044;-59
2022/09/13 10:11:50;;;;;;;0.30;0.30;;;24.10;56.20;;;;;;5105438;28;20020;-59
2022/09/13 10:14:46;;;;;;;0.50;0.50;;;24.10;56.20;;;;;;5105320;28;20023;-59
2022/09/13 10:17:20;;;;;;;0.40;0.40;;;24.10;56.70;;;;;;5105307;28;20020;-59
2022/09/13 10:20:11;;;;;;;0.55;0.40;;;24.10;56.10;;;;;;5105084;28;20020;-59
2022/09/13 10:22:37;;;;;;;0.40;0.40;;;24.10;56.10;;;;;;5105450;28;20020;-60
2022/09/13 10:25:28;;;;;;;0.40;0.40;;;24.10;56.00;;;;;;5105157;28;20025;-59
2022/09/13 10:27:56;;;;;;;0.40;0.40;;;24.20;56.00;;;;;;5105142;28;20020;-59
2022/09/13 10:30:48;;;;;;;0.40;0.40;;;24.20;56.00;;;;;;5105035;28;20031;-60
2022/09/13 10:33:37;;;;;;;0.30;0.30;;;24.20;56.00;;;;;;5091857;28;20024;-59
2022/09/13 10:36:12;;;;;;;0.40;0.40;;;24.20;56.00;;;;;;5104953;28;20020;-60
2022/09/13 10:38:41;;;;;;;0.38;0.38;;;24.20;56.00;;;;;;5104916;28;20059;-58
2022/09/13 10:41:18;;;;;;;0.65;0.50;;;24.20;56.10;;;;;;5104742;28;20354;-60
2022/09/13 10:43:44;;;;;;;0.40;0.40;;;24.20;56.10;;;;;;5104869;28;20020;-60
2022/09/13 10:46:20;;;;;;;0.30;0.30;;;24.20;56.10;;;;;;5104730;28;20308;-60
2022/09/13 10:48:54;;;;;;;0.47;0.32;;;24.20;56.10;;;;;;5104752;28;20012;-59
2022/09/13 10:51:35;;;;;;;0.57;0.57;;;24.20;56.10;;;;;;5104954;28;20051;-60
2022/09/13 10:54:24;;;;;;;0.40;0.40;;;24.20;56.00;;;;;;5104918;28;20087;-60
2022/09/13 10:56:50;;;;;;;0.60;0.60;;;24.20;56.00;;;;;;5104835;28;20066;-59
2022/09/13 10:59:16;;;;;;;0.50;0.50;;;24.20;56.10;;;;;;5104441;28;20047;-58
2022/09/13 11:02:10;;;;;;;0.30;0.30;;;24.20;56.10;;;;;;5104485;28;20019;-59
2022/09/13 11:05:05;;;;;;;0.40;0.40;;;24.30;56.00;;;;;;5087191;28;20031;-58
2022/09/13 11:07:43;;;;;;;0.73;0.40;;;24.20;56.00;;;;;;5104233;28;20019;-60
2022/09/13 11:10:12;;;;;;;0.40;0.40;;;24.20;56.00;;;;;;5104305;28;20055;-60
2022/09/13 11:13:25;;;;;;;0.40;0.40;;;24.30;56.00;;;;;;5104264;28;20027;-59
2022/09/13 11:16:05;;;;;;;0.45;0.45;;;24.30;55.90;;;;;;5002232;28;20037;-59
2022/09/13 11:18:41;;;;;;;0.50;0.50;;;24.30;56.00;;;;;;5101662;28;20093;-59
2022/09/13 11:21:35;;;;;;;0.40;0.40;;;24.30;55.90;;;;;;5104079;28;20016;-60
2022/09/13 11:24:42;;;;;;;0.40;0.40;;;24.30;55.90;;;;;;5101241;28;20034;-59
2022/09/13 11:27:18;;;;;;;0.32;0.32;;;24.30;56.00;;;;;;5002494;28;20022;-59
2022/09/13 11:29:56;;;;;;;0.50;0.40;;;24.30;56.10;;;;;;5094206;28;20031;-58
2022/09/13 11:32:41;;;;;;;;;;;24.30;56.00;;;;;;5104451;28;20020;-59
2022/09/13 11:35:25;;;;;;;0.30;0.30;;;24.30;56.00;;;;;;5104230;28;19900;-60
2022/09/13 11:38:15;;;;;;;2.60;0.70;;;24.30;56.00;;;;;;5103959;28;20016;-59
2022/09/13 11:40:58;;;;;;;0.32;0.32;;;24.30;56.00;;;;;;5103833;28;20020;-59
2022/09/13 11:43:29;;;;;;;0.40;0.40;;;24.30;55.90;;;;;;5103859;28;20230;-59
2022/09/13 11:46:03;;;;;;;0.40;0.40;;;24.30;56.00;;;;;;5104053;28;20083;-59
2022/09/13 11:48:53;;;;;;;0.38;0.38;;;24.40;56.00;;;;;;5104069;28;20200;-59
2022/09/13 11:51:33;;;;;;;0.50;0.50;;;24.40;56.00;;;;;;5103697;28;20239;-60
2022/09/13 11:54:10;;;;;;;0.40;0.30;;;24.40;55.90;;;;;;5103758;28;20048;-59
2022/09/13 11:56:41;;;;;;;0.35;0.35;;;24.40;55.80;;;;;;5103649;28;20083;-59
2022/09/13 11:59:41;;;;;;;0.45;0.43;;;24.40;55.80;;;;;;5103583;28;20185;-60
2022/09/13 12:02:38;;;;;;;0.30;0.30;;;24.40;55.80;;;;;;5098011;28;20251;-59
2022/09/13 12:05:20;;;;;;;0.40;0.40;;;24.40;55.70;;;;;;5102390;28;20028;-59
2022/09/13 12:07:54;;;;;;;0.52;0.50;;;24.40;55.80;;;;;;5103604;28;20237;-59
2022/09/13 12:10:44;;;;;;;0.40;0.40;;;24.40;55.70;;;;;;5103389;28;20044;-59
2022/09/13 12:13:17;;;;;;;0.40;0.40;;;24.40;56.40;;;;;;5103784;28;20054;-59
2022/09/13 12:15:45;;;;;;;0.30;0.30;;;24.40;55.80;;;;;;5103548;28;20024;-59
2022/09/13 12:18:34;;;;;;;;;;;24.40;55.80;;;;;;5103941;28;20019;-59
2022/09/13 12:21:09;;;;;;;0.50;0.50;;;24.40;55.70;;;;;;5092430;28;19931;-59
2022/09/13 12:23:37;;;;;;;0.40;0.40;;;24.40;55.80;;;;;;5103493;28;20008;-59
2022/09/13 12:26:15;;;;;;;0.30;0.30;;;24.50;55.80;;;;;;5103456;28;20026;-60
2022/09/13 12:28:52;;;;;;;0.52;0.50;;;24.50;55.80;;;;;;5103444;28;20024;-59
2022/09/13 12:31:22;;;;;;;0.50;0.50;;;24.50;55.80;;;;;;5107427;28;20020;-58
2022/09/13 12:33:48;;;;;;;0.40;0.40;;;24.50;55.70;;;;;;5107354;28;20121;-59
2022/09/13 12:36:35;;;;;;;0.35;0.35;;;24.60;55.80;;;;;;5107327;28;20038;-60
2022/09/13 12:39:22;;;;;;;0.40;0.40;;;24.50;55.70;;;;;;5107345;28;20246;-60
2022/09/13 12:42:40;;;;;;;0.22;0.22;;;24.50;55.70;;;;;;5107277;28;20137;-59
2022/09/13 12:45:42;;;;;;;0.55;0.55;;;24.50;55.80;;;;;;5031502;28;20223;-59
2022/09/13 12:48:33;;;;;;;0.40;0.40;;;24.50;55.80;;;;;;5017703;28;20047;-59
2022/09/13 12:51:23;;;;;;;0.38;0.38;;;24.50;55.80;;;;;;5107073;28;20018;-59
2022/09/13 12:53:59;;;;;;;0.30;0.30;;;24.50;55.80;;;;;;5107045;28;20065;-59
2022/09/13 12:57:02;;;;;;;0.30;0.30;;;24.40;55.90;;;;;;5088856;28;20012;-59
2022/09/13 12:59:46;;;;;;;0.55;0.55;;;24.50;55.80;;;;;;5106846;28;20020;-59
2022/09/13 13:02:34;;;;;;;0.35;0.35;;;24.50;55.70;;;;;;5106818;28;20246;-59
2022/09/13 13:05:24;;;;;;;0.40;0.40;;;24.70;55.50;;;;;;5106811;28;20039;-59
2022/09/13 13:08:05;;;;;;;0.47;0.47;;;24.80;55.10;;;;;;5106622;28;20027;-60
2022/09/13 13:10:38;;;;;;;0.63;0.50;;;25.00;54.80;;;;;;5106510;28;20044;-59
2022/09/13 13:13:30;;;;;;;0.40;0.40;;;25.10;54.50;;;;;;5106617;28;20020;-58
2022/09/13 13:15:58;;;;;;;0.40;0.40;;;25.20;54.30;;;;;;5106554;28;20016;-59
2022/09/13 13:18:27;;;;;;;0.47;0.47;;;25.30;54.10;;;;;;5106517;28;20216;-58
2022/09/13 13:20:53;;;;;;;0.50;0.50;;;25.40;53.80;;;;;;5106398;28;20020;-59
2022/09/13 13:23:34;;;;;;;0.50;0.50;;;25.50;53.50;;;;;;5106410;28;20212;-59
2022/09/13 13:26:31;;;;;;;0.40;0.40;;;25.70;53.30;;;;;;5106390;28;20016;-59